createdAt,value
2023-02-27T00:02:12.550Z,48.21
2023-02-27T00:04:39.058Z,48.18
2023-02-27T00:07:05.623Z,47.63
2023-02-27T00:09:32.137Z,47.57
2023-02-27T00:11:58.866Z,47.56
2023-02-27T00:14:25.432Z,46.97
2023-02-27T00:16:51.969Z,47.11
2023-02-27T00:19:18.822Z,46.73
2023-02-27T00:21:45.483Z,46.83
2023-02-27T00:24:12.402Z,46.61
2023-02-27T00:26:39.032Z,46.76
2023-02-27T00:29:06.411Z,47.04
2023-02-27T00:31:33.158Z,47.42
2023-02-27T00:33:59.713Z,47.15
2023-02-27T00:36:26.930Z,46.88
2023-02-27T00:38:53.660Z,46.81
2023-02-27T00:41:20.156Z,47.21
2023-02-27T00:43:46.924Z,47.12
2023-02-27T00:46:13.588Z,47.24
2023-02-27T00:48:40.261Z,46.75
2023-02-27T00:51:06.808Z,47.26
2023-02-27T00:53:33.330Z,47.06
2023-02-27T00:56:00.099Z,47.43
2023-02-27T00:58:26.681Z,47.25
2023-02-27T01:00:53.378Z,47.23
2023-02-27T01:03:19.913Z,47.27
2023-02-27T01:05:46.716Z,47.96
2023-02-27T01:08:13.318Z,48.11
2023-02-27T01:10:40.953Z,48.47
2023-02-27T01:13:07.461Z,48.30
2023-02-27T01:15:34.324Z,48.63
2023-02-27T01:18:00.968Z,48.65
2023-02-27T01:20:27.587Z,48.65
2023-02-27T01:22:54.117Z,48.23
2023-02-27T01:25:20.664Z,48.15
2023-02-27T01:27:47.512Z,48.38
2023-02-27T01:30:15.812Z,48.48
2023-02-27T01:32:42.726Z,48.27
2023-02-27T01:35:09.713Z,48.45
2023-02-27T01:37:36.474Z,48.47
2023-02-27T01:40:04.410Z,48.26
2023-02-27T01:42:31.033Z,48.69
2023-02-27T01:45:09.637Z,48.79
2023-02-27T01:47:37.436Z,48.37
2023-02-27T01:50:04.355Z,48.66
2023-02-27T01:52:31.134Z,48.35
2023-02-27T01:54:57.749Z,48.48
2023-02-27T01:57:24.372Z,48.37
2023-02-27T01:59:51.129Z,48.46
2023-02-27T02:02:23.860Z,48.01
2023-02-27T02:04:50.508Z,48.11
2023-02-27T02:07:19.691Z,48.65
2023-02-27T02:09:51.876Z,48.42
2023-02-27T02:12:21.725Z,48.69
2023-02-27T02:14:48.192Z,48.59
2023-02-27T02:17:19.938Z,48.58
2023-02-27T02:20:22.017Z,48.77
2023-02-27T02:23:00.747Z,49.40
2023-02-27T02:25:56.052Z,49.18
2023-02-27T02:28:34.591Z,49.26
2023-02-27T02:31:18.782Z,49.26
2023-02-27T02:34:30.264Z,49.19
2023-02-27T02:37:17.250Z,48.88
2023-02-27T02:39:58.918Z,49.37
2023-02-27T02:42:34.222Z,49.64
2023-02-27T02:45:19.305Z,49.12
2023-02-27T02:48:20.746Z,49.02
2023-02-27T02:51:04.925Z,49.05
2023-02-27T02:53:39.477Z,49.04
2023-02-27T02:56:13.752Z,48.67
2023-02-27T02:59:04.399Z,49.33
2023-02-27T03:01:39.558Z,49.11
2023-02-27T03:04:18.503Z,48.79
2023-02-27T03:06:54.525Z,48.72
2023-02-27T03:09:29.190Z,49.65
2023-02-27T03:11:57.535Z,49.51
2023-02-27T03:14:47.291Z,49.12
2023-02-27T03:17:19.291Z,49.28
2023-02-27T03:19:57.215Z,48.98
2023-02-27T03:22:30.292Z,49.27
2023-02-27T03:24:59.257Z,48.85
2023-02-27T03:27:30.718Z,49.25
2023-02-27T03:30:03.983Z,48.96
2023-02-27T03:32:45.916Z,49.67
2023-02-27T03:35:12.787Z,49.43
2023-02-27T03:37:48.536Z,49.37
2023-02-27T03:40:45.499Z,49.21
2023-02-27T03:43:18.500Z,49.29
2023-02-27T03:45:55.702Z,49.48
2023-02-27T03:48:22.624Z,49.39
2023-02-27T03:50:49.417Z,49.29
2023-02-27T03:53:41.907Z,49.60
2023-02-27T03:56:09.237Z,49.92
2023-02-27T03:58:36.186Z,49.80
2023-02-27T04:01:03.253Z,50.02
2023-02-27T04:03:32.824Z,51.32
2023-02-27T04:06:19.453Z,51.16
2023-02-27T04:09:15.482Z,51.84
2023-02-27T04:11:56.421Z,50.85
2023-02-27T04:14:39.543Z,51.38
2023-02-27T04:17:21.619Z,50.68
2023-02-27T04:19:51.957Z,50.69
2023-02-27T04:22:27.200Z,50.55
2023-02-27T04:24:53.687Z,50.18
2023-02-27T04:27:40.558Z,50.34
2023-02-27T04:30:25.834Z,50.47
2023-02-27T04:33:13.158Z,49.97
2023-02-27T04:36:00.414Z,49.87
2023-02-27T04:38:39.414Z,50.07
2023-02-27T04:41:10.267Z,50.25
2023-02-27T04:43:39.384Z,50.22
2023-02-27T04:46:09.098Z,50.15
2023-02-27T04:48:41.084Z,50.62
2023-02-27T04:51:13.777Z,52.18
2023-02-27T04:53:49.545Z,53.62
2023-02-27T04:56:31.335Z,54.38
2023-02-27T04:59:09.575Z,53.57
2023-02-27T05:01:41.129Z,52.76
2023-02-27T05:04:10.749Z,52.82
2023-02-27T05:06:40.081Z,52.85
2023-02-27T05:09:14.432Z,52.30
2023-02-27T05:11:45.181Z,51.85
2023-02-27T05:14:36.286Z,51.42
2023-02-27T05:17:04.459Z,51.55
2023-02-27T05:19:32.408Z,51.26
2023-02-27T05:22:23.646Z,51.37
2023-02-27T05:25:06.351Z,51.52
2023-02-27T05:27:44.548Z,51.11
2023-02-27T05:30:22.255Z,51.06
2023-02-27T05:33:18.562Z,52.11
2023-02-27T05:36:01.260Z,51.43
2023-02-27T05:39:02.802Z,51.53
2023-02-27T05:41:41.830Z,52.50
2023-02-27T05:44:09.956Z,51.87
2023-02-27T05:46:39.342Z,52.06
2023-02-27T05:49:10.720Z,51.93
2023-02-27T05:51:38.247Z,51.07
2023-02-27T05:54:48.310Z,51.73
2023-02-27T05:57:19.947Z,51.75
2023-02-27T06:00:08.622Z,51.39
2023-02-27T06:02:35.196Z,51.63
2023-02-27T06:05:02.092Z,51.63
2023-02-27T06:07:31.232Z,51.70
2023-02-27T06:09:58.017Z,51.25
2023-02-27T06:12:25.343Z,51.80
2023-02-27T06:14:51.937Z,50.84
2023-02-27T06:17:18.822Z,51.25
2023-02-27T06:19:45.421Z,51.20
2023-02-27T06:22:11.968Z,51.10
2023-02-27T06:24:38.514Z,50.95
2023-02-27T06:27:05.285Z,51.03
2023-02-27T06:29:31.784Z,51.35
2023-02-27T06:31:58.381Z,50.80
2023-02-27T06:34:25.084Z,51.00
2023-02-27T06:36:51.834Z,50.59
2023-02-27T06:39:18.399Z,50.70
2023-02-27T06:41:44.908Z,50.94
2023-02-27T06:44:11.407Z,50.09
2023-02-27T06:46:38.077Z,50.11
2023-02-27T06:49:05.498Z,50.25
2023-02-27T06:51:32.735Z,50.44
2023-02-27T06:53:59.369Z,50.01
2023-02-27T06:56:26.256Z,51.34
2023-02-27T06:58:52.995Z,50.75
2023-02-27T07:01:19.726Z,50.51
2023-02-27T07:03:46.652Z,51.39
2023-02-27T07:06:13.454Z,53.82
2023-02-27T07:09:01.922Z,54.17
2023-02-27T07:11:26.480Z,56.65
2023-02-27T07:13:53.204Z,58.02
2023-02-27T07:16:19.868Z,56.48
2023-02-27T07:18:46.393Z,55.72
2023-02-27T07:21:15.229Z,54.01
2023-02-27T07:23:42.221Z,52.75
2023-02-27T07:26:08.978Z,51.99
2023-02-27T07:28:36.106Z,51.82
2023-02-27T07:31:02.733Z,51.16
2023-02-27T07:33:29.762Z,51.75
2023-02-27T07:35:56.311Z,51.02
2023-02-27T07:38:24.039Z,50.60
2023-02-27T07:40:50.698Z,50.42
2023-02-27T07:43:17.248Z,49.92
2023-02-27T07:45:45.253Z,49.77
2023-02-27T07:48:11.924Z,49.43
2023-02-27T07:50:38.491Z,49.04
2023-02-27T07:53:07.921Z,48.54
2023-02-27T07:55:34.549Z,48.07
2023-02-27T07:58:01.547Z,47.74
2023-02-27T08:00:28.162Z,47.13
2023-02-27T08:02:54.797Z,47.99
2023-02-27T08:05:21.400Z,48.76
2023-02-27T08:07:48.022Z,47.70
2023-02-27T08:10:16.638Z,47.08
2023-02-27T08:12:43.279Z,46.57
2023-02-27T08:15:10.153Z,46.09
2023-02-27T08:17:36.730Z,45.54
2023-02-27T08:20:05.144Z,46.29
2023-02-27T08:22:32.535Z,45.50
2023-02-27T08:24:59.210Z,45.35
2023-02-27T08:27:25.760Z,44.75
2023-02-27T08:29:52.279Z,45.06
2023-02-27T08:32:18.957Z,45.37
2023-02-27T08:34:45.771Z,44.89
2023-02-27T08:37:12.312Z,44.24
2023-02-27T08:39:38.863Z,44.42
2023-02-27T08:42:07.091Z,46.28
2023-02-27T08:44:34.076Z,45.44
2023-02-27T08:47:00.830Z,44.25
2023-02-27T08:49:27.685Z,43.56
2023-02-27T08:51:54.499Z,43.27
2023-02-27T08:54:21.391Z,45.37
2023-02-27T08:56:48.883Z,44.98
2023-02-27T08:59:15.791Z,43.45
2023-02-27T09:01:42.568Z,42.54
2023-02-27T09:04:09.838Z,42.82
2023-02-27T09:06:36.732Z,42.52
2023-02-27T09:09:04.136Z,42.19
2023-02-27T09:11:31.210Z,43.27
2023-02-27T09:13:58.887Z,42.06
2023-02-27T09:16:26.176Z,41.02
2023-02-27T09:18:53.058Z,40.34
2023-02-27T09:21:20.410Z,38.96
2023-02-27T09:23:46.956Z,38.24
2023-02-27T09:26:13.753Z,36.51
2023-02-27T09:28:40.334Z,34.81
2023-02-27T09:31:07.972Z,34.61
2023-02-27T09:33:35.911Z,34.07
2023-02-27T09:36:02.838Z,33.96
2023-02-27T09:38:29.638Z,32.91
2023-02-27T09:40:56.727Z,31.96
2023-02-27T09:43:31.080Z,33.76
2023-02-27T09:45:58.350Z,34.55
2023-02-27T09:48:34.145Z,35.80
2023-02-27T09:51:01.208Z,33.98
2023-02-27T09:53:35.946Z,33.82
2023-02-27T09:56:10.124Z,32.61
2023-02-27T09:58:46.061Z,26.99
2023-02-27T10:01:34.788Z,21.82
2023-02-27T10:04:18.421Z,16.74
2023-02-27T10:06:51.051Z,13.63
2023-02-27T10:09:36.431Z,11.18
2023-02-27T10:12:24.848Z,9.67
2023-02-27T10:14:55.504Z,9.05
2023-02-27T10:17:44.934Z,8.79
2023-02-27T10:20:20.634Z,8.36
2023-02-27T10:22:48.792Z,9.85
2023-02-27T10:25:30.716Z,9.37
2023-02-27T10:28:02.158Z,10.21
2023-02-27T10:30:32.878Z,10.49
2023-02-27T10:33:07.422Z,10.50
2023-02-27T10:35:37.290Z,9.71
2023-02-27T10:38:12.888Z,13.33
2023-02-27T10:40:40.455Z,13.34
2023-02-27T10:43:07.275Z,12.64
2023-02-27T10:45:35.640Z,11.44
2023-02-27T10:48:04.850Z,12.47
2023-02-27T10:50:36.058Z,10.72
2023-02-27T10:53:07.381Z,12.35
2023-02-27T10:55:38.255Z,14.57
2023-02-27T10:58:05.514Z,12.52
2023-02-27T11:00:46.132Z,10.90
2023-02-27T11:03:24.623Z,9.32
2023-02-27T11:06:06.053Z,8.51
2023-02-27T11:08:34.268Z,8.30
2023-02-27T11:11:02.929Z,7.48
2023-02-27T11:13:32.629Z,8.76
2023-02-27T11:16:03.075Z,7.17
2023-02-27T11:18:30.687Z,6.43
2023-02-27T11:21:09.035Z,6.49
2023-02-27T11:23:35.822Z,7.17
2023-02-27T11:26:18.022Z,7.67
2023-02-27T11:28:44.693Z,6.91
2023-02-27T11:31:21.542Z,7.81
2023-02-27T11:33:53.754Z,7.71
2023-02-27T11:36:23.732Z,6.61
2023-02-27T11:38:52.865Z,8.72
2023-02-27T11:41:19.610Z,9.89
2023-02-27T11:43:53.187Z,12.60
2023-02-27T11:46:47.765Z,13.13
2023-02-27T11:49:30.580Z,15.69
2023-02-27T11:52:20.390Z,19.26
2023-02-27T11:54:57.432Z,20.40
2023-02-27T11:57:33.742Z,14.47
2023-02-27T12:00:06.730Z,13.56
2023-02-27T12:02:48.139Z,15.80
2023-02-27T12:05:18.727Z,13.96
2023-02-27T12:07:51.667Z,12.50
2023-02-27T12:10:22.164Z,12.10
2023-02-27T12:12:56.609Z,12.80
2023-02-27T12:15:47.883Z,11.57
2023-02-27T12:18:24.721Z,10.72
2023-02-27T12:20:57.556Z,9.24
2023-02-27T12:23:29.130Z,9.59
2023-02-27T12:26:03.402Z,10.04
2023-02-27T12:28:42.147Z,12.34
2023-02-27T12:31:22.266Z,14.72
2023-02-27T12:34:01.694Z,17.42
2023-02-27T12:36:28.322Z,19.22
2023-02-27T12:38:55.109Z,22.10
2023-02-27T12:41:28.097Z,23.01
2023-02-27T12:44:21.994Z,24.81
2023-02-27T12:46:52.591Z,27.56
2023-02-27T12:49:30.939Z,28.10
2023-02-27T12:52:00.721Z,28.75
2023-02-27T12:54:39.392Z,28.20
2023-02-27T12:57:32.827Z,28.31
2023-02-27T13:00:08.272Z,29.09
2023-02-27T13:02:59.773Z,29.53
2023-02-27T13:05:38.289Z,30.34
2023-02-27T13:08:18.608Z,31.96
2023-02-27T13:10:48.162Z,32.51
2023-02-27T13:13:19.724Z,31.91
2023-02-27T13:16:00.649Z,32.48
2023-02-27T13:18:39.582Z,31.80
2023-02-27T13:21:20.831Z,31.65
2023-02-27T13:24:06.193Z,31.25
2023-02-27T13:27:01.968Z,32.59
2023-02-27T13:30:11.633Z,31.23
2023-02-27T13:32:52.341Z,32.22
2023-02-27T13:35:45.633Z,31.24
2023-02-27T13:38:42.538Z,31.20
2023-02-27T13:41:37.054Z,30.66
2023-02-27T13:44:16.135Z,30.63
2023-02-27T13:46:42.804Z,30.56
2023-02-27T13:49:20.092Z,30.99
2023-02-27T13:51:54.629Z,31.69
2023-02-27T13:54:24.225Z,31.77
2023-02-27T13:57:14.889Z,31.84
2023-02-27T13:59:44.300Z,33.58
2023-02-27T14:02:11.071Z,33.23
2023-02-27T14:04:52.059Z,32.88
2023-02-27T14:07:21.656Z,32.33
2023-02-27T14:09:50.780Z,31.31
2023-02-27T14:12:44.152Z,30.69
2023-02-27T14:15:17.817Z,30.66
2023-02-27T14:17:46.421Z,31.11
2023-02-27T14:20:12.933Z,31.64
2023-02-27T14:22:40.783Z,32.11
2023-02-27T14:25:10.286Z,32.46
2023-02-27T14:27:48.850Z,32.71
2023-02-27T14:30:38.189Z,32.53
2023-02-27T14:33:08.262Z,33.19
2023-02-27T14:35:36.108Z,32.45
2023-02-27T14:38:09.389Z,32.54
2023-02-27T14:40:40.916Z,32.06
2023-02-27T14:43:27.543Z,32.16
2023-02-27T14:45:54.668Z,31.98
2023-02-27T14:48:27.582Z,32.40
2023-02-27T14:50:54.632Z,31.38
2023-02-27T14:53:26.308Z,32.09
2023-02-27T14:55:55.189Z,31.43
2023-02-27T14:58:22.448Z,31.34
2023-02-27T15:00:58.477Z,31.31
2023-02-27T15:03:39.360Z,31.58
2023-02-27T15:06:34.029Z,31.01
2023-02-27T15:09:03.801Z,30.27
2023-02-27T15:11:30.969Z,30.57
2023-02-27T15:14:01.386Z,30.99
2023-02-27T15:16:34.418Z,31.14
2023-02-27T15:19:05.902Z,30.90
2023-02-27T15:21:39.265Z,31.39
2023-02-27T15:24:09.099Z,30.93
2023-02-27T15:26:38.829Z,30.96
2023-02-27T15:29:06.471Z,32.22
2023-02-27T15:31:33.604Z,32.26
2023-02-27T15:34:01.695Z,32.34
2023-02-27T15:36:31.021Z,32.61
2023-02-27T15:39:16.083Z,32.54
2023-02-27T15:41:48.664Z,32.25
2023-02-27T15:44:16.993Z,33.00
2023-02-27T15:46:44.776Z,32.61
2023-02-27T15:49:19.777Z,32.86
2023-02-27T15:51:47.643Z,33.38
2023-02-27T15:54:14.936Z,33.53
2023-02-27T15:56:42.136Z,33.46
2023-02-27T15:59:13.143Z,33.74
2023-02-27T16:01:39.902Z,33.80
2023-02-27T16:04:14.965Z,35.41
2023-02-27T16:06:48.413Z,35.11
2023-02-27T16:09:20.953Z,35.94
2023-02-27T16:11:47.499Z,36.14
2023-02-27T16:14:41.146Z,36.11
2023-02-27T16:17:24.490Z,36.75
2023-02-27T16:19:51.102Z,36.88
2023-02-27T16:22:19.922Z,36.25
2023-02-27T16:24:46.787Z,36.10
2023-02-27T16:27:16.569Z,36.26
2023-02-27T16:29:44.894Z,36.04
2023-02-27T16:32:30.153Z,35.87
2023-02-27T16:35:02.084Z,35.59
2023-02-27T16:37:37.105Z,36.20
2023-02-27T16:40:16.275Z,36.47
2023-02-27T16:42:44.509Z,36.19
2023-02-27T16:45:16.342Z,36.17
2023-02-27T16:47:43.132Z,36.16
2023-02-27T16:50:21.901Z,36.67
2023-02-27T16:52:48.517Z,36.64
2023-02-27T16:55:15.187Z,36.92
2023-02-27T16:57:41.716Z,36.36
2023-02-27T17:00:11.714Z,36.98
2023-02-27T17:02:38.771Z,36.68
2023-02-27T17:05:06.011Z,37.29
2023-02-27T17:07:32.810Z,37.28
2023-02-27T17:10:00.345Z,37.51
2023-02-27T17:12:27.368Z,37.69
2023-02-27T17:14:53.995Z,37.42
2023-02-27T17:17:20.575Z,37.31
2023-02-27T17:19:47.363Z,38.13
2023-02-27T17:22:15.180Z,37.98
2023-02-27T17:24:41.884Z,38.23
2023-02-27T17:27:09.399Z,38.24
2023-02-27T17:29:38.583Z,38.02
2023-02-27T17:32:05.511Z,38.41
2023-02-27T17:34:32.191Z,38.30
2023-02-27T17:36:58.932Z,37.73
2023-02-27T17:39:25.514Z,38.52
2023-02-27T17:41:53.188Z,38.64
2023-02-27T17:44:20.159Z,38.19
2023-02-27T17:46:46.695Z,38.25
2023-02-27T17:49:13.213Z,38.50
2023-02-27T17:51:40.055Z,38.89
2023-02-27T17:54:06.970Z,38.84
2023-02-27T17:56:36.739Z,39.21
2023-02-27T17:59:04.048Z,39.54
2023-02-27T18:01:30.671Z,39.08
2023-02-27T18:03:57.547Z,39.30
2023-02-27T18:06:24.829Z,39.20
2023-02-27T18:08:51.520Z,39.58
2023-02-27T18:11:19.641Z,39.60
2023-02-27T18:13:46.802Z,38.73
2023-02-27T18:16:13.879Z,38.59
2023-02-27T18:18:42.209Z,38.34
2023-02-27T18:21:20.736Z,38.29
2023-02-27T18:23:48.253Z,38.36
2023-02-27T18:26:32.543Z,38.22
2023-02-27T18:29:04.905Z,37.91
2023-02-27T18:31:37.749Z,38.10
2023-02-27T18:34:04.509Z,38.25
2023-02-27T18:36:32.219Z,37.88
2023-02-27T18:38:59.824Z,38.11
2023-02-27T18:41:26.545Z,38.07
2023-02-27T18:43:53.290Z,38.33
2023-02-27T18:46:20.154Z,37.98
2023-02-27T18:48:47.482Z,37.80
2023-02-27T18:51:15.541Z,38.15
2023-02-27T18:53:44.250Z,38.12
2023-02-27T18:56:11.619Z,37.93
2023-02-27T18:58:38.759Z,37.79
2023-02-27T19:01:07.283Z,38.05
2023-02-27T19:03:35.785Z,37.88
2023-02-27T19:06:02.696Z,38.33
2023-02-27T19:08:29.630Z,38.26
2023-02-27T19:10:57.000Z,37.84
2023-02-27T19:13:24.288Z,38.07
2023-02-27T19:15:51.666Z,38.50
2023-02-27T19:18:18.319Z,38.59
2023-02-27T19:20:44.900Z,38.27
2023-02-27T19:23:11.757Z,38.75
2023-02-27T19:25:38.347Z,39.02
2023-02-27T19:28:06.369Z,38.76
2023-02-27T19:30:33.072Z,38.91
2023-02-27T19:32:59.623Z,39.54
2023-02-27T19:35:26.238Z,39.22
2023-02-27T19:37:57.077Z,39.46
2023-02-27T19:40:25.393Z,39.78
2023-02-27T19:42:52.021Z,40.00
2023-02-27T19:45:18.549Z,40.46
2023-02-27T19:47:46.632Z,40.70
2023-02-27T19:50:13.292Z,41.04
2023-02-27T19:52:40.332Z,40.24
2023-02-27T19:55:07.502Z,40.66
2023-02-27T19:57:35.091Z,40.72
2023-02-27T20:00:01.681Z,40.17
2023-02-27T20:02:29.122Z,40.46
2023-02-27T20:04:55.661Z,40.36
2023-02-27T20:07:22.804Z,40.39
2023-02-27T20:09:49.817Z,40.51
2023-02-27T20:12:16.436Z,40.96
2023-02-27T20:14:43.009Z,40.54
2023-02-27T20:17:09.774Z,40.47
2023-02-27T20:19:36.738Z,40.46
2023-02-27T20:22:04.084Z,40.93
2023-02-27T20:24:30.806Z,41.57
2023-02-27T20:26:59.207Z,41.59
2023-02-27T20:29:27.092Z,42.21
2023-02-27T20:31:55.443Z,42.29
2023-02-27T20:34:24.789Z,42.11
2023-02-27T20:36:52.208Z,42.83
2023-02-27T20:39:19.678Z,42.81
2023-02-27T20:41:46.666Z,43.19
2023-02-27T20:44:13.421Z,43.43
2023-02-27T20:46:41.482Z,43.02
2023-02-27T20:49:10.184Z,43.15
2023-02-27T20:51:38.524Z,43.14
2023-02-27T20:54:07.812Z,42.92
2023-02-27T20:56:41.196Z,43.05
2023-02-27T20:59:10.064Z,43.57
2023-02-27T21:01:38.357Z,43.32
2023-02-27T21:04:05.382Z,43.32
2023-02-27T21:06:32.173Z,43.25
2023-02-27T21:09:05.267Z,42.88
2023-02-27T21:11:33.266Z,43.22
2023-02-27T21:14:04.095Z,43.48
2023-02-27T21:16:30.633Z,43.03
2023-02-27T21:18:57.149Z,43.21
2023-02-27T21:21:29.452Z,43.58
2023-02-27T21:23:56.930Z,43.75
2023-02-27T21:26:26.414Z,43.81
2023-02-27T21:28:58.454Z,44.21
2023-02-27T21:31:26.837Z,44.04
2023-02-27T21:33:54.032Z,44.03
2023-02-27T21:36:28.675Z,43.90
2023-02-27T21:38:59.836Z,44.33
2023-02-27T21:41:28.009Z,43.92
2023-02-27T21:43:59.320Z,44.06
2023-02-27T21:46:26.141Z,44.07
2023-02-27T21:48:52.772Z,44.20
2023-02-27T21:51:32.972Z,44.54
2023-02-27T21:54:01.768Z,44.32
2023-02-27T21:56:29.744Z,44.40
2023-02-27T21:58:59.900Z,44.42
2023-02-27T22:01:26.511Z,44.80
2023-02-27T22:03:54.022Z,44.42
2023-02-27T22:06:22.106Z,44.48
2023-02-27T22:08:52.862Z,44.70
2023-02-27T22:11:19.394Z,44.71
2023-02-27T22:13:46.151Z,44.78
2023-02-27T22:16:13.107Z,44.45
2023-02-27T22:18:40.887Z,44.91
2023-02-27T22:21:09.817Z,44.75
2023-02-27T22:23:37.875Z,44.59
2023-02-27T22:26:07.457Z,44.25
2023-02-27T22:28:35.215Z,45.03
2023-02-27T22:31:10.860Z,44.63
2023-02-27T22:33:38.703Z,45.17
2023-02-27T22:36:10.012Z,45.10
2023-02-27T22:38:36.947Z,45.20
2023-02-27T22:41:15.454Z,45.34
2023-02-27T22:43:44.615Z,45.26
2023-02-27T22:46:13.221Z,45.27
2023-02-27T22:48:40.258Z,45.40
2023-02-27T22:51:12.531Z,45.25
2023-02-27T22:53:39.938Z,45.37
2023-02-27T22:56:16.606Z,45.00
2023-02-27T22:58:44.699Z,44.86
2023-02-27T23:01:13.726Z,46.51
2023-02-27T23:03:42.838Z,45.83
2023-02-27T23:06:13.087Z,45.84
2023-02-27T23:08:40.058Z,46.28
2023-02-27T23:11:06.957Z,46.64
2023-02-27T23:13:33.633Z,46.20
2023-02-27T23:16:01.137Z,46.16
2023-02-27T23:18:28.358Z,46.64
2023-02-27T23:20:54.926Z,46.05
2023-02-27T23:23:21.515Z,46.48
2023-02-27T23:25:48.578Z,46.35
2023-02-27T23:28:15.325Z,46.03
2023-02-27T23:30:42.896Z,45.94
2023-02-27T23:33:09.445Z,46.30
2023-02-27T23:35:36.056Z,45.49
2023-02-27T23:38:03.486Z,45.64
2023-02-27T23:40:30.234Z,45.41
2023-02-27T23:42:56.802Z,45.43
2023-02-27T23:45:23.484Z,45.83
2023-02-27T23:47:54.185Z,45.73
2023-02-27T23:50:23.257Z,45.74
2023-02-27T23:52:50.913Z,45.23
2023-02-27T23:55:19.086Z,45.52
2023-02-27T23:57:45.886Z,46.88
